Terminal Aerodrome Forecast
Issued by NWS

Home | Current Version | Previous Version | Text Only | Print | Product List | Glossary On
Versions: 1 2 3 4 5 6 7 8 9 10 11 12 13 14 15 16 17 18 19 20 21 22 23
000
FTUS46 KMTR 242336
TAFMRY
TAF
KMRY 242336Z 2500/2524 21016G21KT P6SM SKC
     FM250300 21008KT P6SM SKC
     FM250700 VRB03KT P6SM SKC
      TEMPO 2508/2512 00000KT 3SM BR OVC003
     FM251800 29004KT P6SM SKC
     FM252100 24012KT P6SM SKC=

USA.gov is the U.S. government's official web portal to all federal, state and local government web resources and services.